Time;durP1;ratioP1;P1;durP2;ratioP2;P2;SDS_P1;SDS_P2;PMS_P1;PMS_P2;Temp;Humidity;BMP_temperature;BMP_pressure;BME280_temperature;BME280_humidity;BME280_pressure;Samples;Min_cycle;Max_cycle;Signal;HPM_P1;HPM_P2
2023/02/05 00:00:30;;;;;;;;;;;9.00;99.90;;;;;;5016085;28;20017;-85
2023/02/05 00:02:55;;;;;;;;;;;9.00;99.90;;;;;;5015914;28;19913;-85
2023/02/05 00:05:21;;;;;;;;;;;9.00;99.90;;;;;;5017831;28;19955;-85
2023/02/05 00:07:46;;;;;;;;;;;8.90;99.90;;;;;;5018658;28;19953;-86
2023/02/05 00:10:12;;;;;;;;;;;8.90;99.90;;;;;;5019097;28;19909;-85
2023/02/05 00:12:37;;;;;;;;;;;8.90;99.90;;;;;;5019599;28;19948;-85
2023/02/05 00:15:03;;;;;;;;;;;8.80;99.90;;;;;;5025894;28;19931;-86
2023/02/05 00:17:29;;;;;;;;;;;8.80;99.90;;;;;;5026003;28;19916;-86
2023/02/05 00:19:55;;;;;;;;;;;8.80;99.90;;;;;;5041086;28;19913;-86
2023/02/05 00:22:20;;;;;;;;;;;8.70;99.90;;;;;;5022427;28;19999;-86
2023/02/05 00:24:46;;;;;;;;;;;8.70;99.90;;;;;;5022697;28;19959;-86
2023/02/05 00:27:11;;;;;;;;;;;8.70;99.90;;;;;;5021771;28;20353;-86
2023/02/05 00:29:37;;;;;;;;;;;8.70;99.90;;;;;;5021793;28;19968;-86
2023/02/05 00:32:02;;;;;;;;;;;8.60;99.90;;;;;;5039636;28;19916;-86
2023/02/05 00:34:28;;;;;;;;;;;8.60;99.90;;;;;;5021328;28;19909;-86
2023/02/05 00:36:53;;;;;;;;;;;8.50;99.90;;;;;;5020618;28;19910;-86
2023/02/05 00:39:19;;;;;;;;;;;8.50;99.90;;;;;;5038786;28;20310;-86
2023/02/05 00:41:44;;;;;;;;;;;8.40;99.90;;;;;;5020755;28;19909;-85
2023/02/05 00:44:10;;;;;;;;;;;8.40;99.90;;;;;;5020868;28;19925;-86
2023/02/05 00:46:35;;;;;;;;;;;8.50;99.90;;;;;;5020229;28;20351;-86
2023/02/05 00:49:01;;;;;;;;;;;8.50;99.90;;;;;;5023407;28;19909;-86
2023/02/05 00:51:26;;;;;;;;;;;8.50;99.90;;;;;;5023544;28;19941;-86
2023/02/05 00:53:52;;;;;;;;;;;8.50;99.90;;;;;;5023570;28;20051;-86
2023/02/05 00:56:17;;;;;;;;;;;8.50;99.90;;;;;;5023670;28;19909;-86
2023/02/05 00:58:46;;;;;;;;;;;8.50;99.90;;;;;;5041088;28;20551;-85
2023/02/05 01:01:15;;;;;;;;;;;8.50;99.90;;;;;;5023396;28;19913;-85
2023/02/05 01:03:40;;;;;;;;;;;8.50;99.90;;;;;;5023355;28;19917;-86
2023/02/05 01:06:06;;;;;;;;;;;8.60;99.90;;;;;;5023768;28;19909;-84
2023/02/05 01:08:32;;;;;;;;;;;8.50;99.90;;;;;;5023268;28;20282;-86
2023/02/05 01:10:57;;;;;;;;;;;8.60;99.90;;;;;;5022662;28;19917;-85
2023/02/05 01:13:23;;;;;;;;;;;8.60;99.90;;;;;;5023003;28;19918;-86
2023/02/05 01:15:48;;;;;;;;;;;8.60;99.90;;;;;;5039012;28;20385;-86
2023/02/05 01:18:14;;;;;;;;;;;8.60;99.90;;;;;;5022467;28;19932;-84
2023/02/05 01:20:40;;;;;;;;;;;8.60;99.90;;;;;;5022653;28;19971;-85
2023/02/05 01:23:05;;;;;;;;;;;8.60;99.90;;;;;;5039863;28;19992;-86
2023/02/05 01:25:31;;;;;;;;;;;8.60;99.90;;;;;;5039696;28;19909;-86
2023/02/05 01:27:56;;;;;;;;;;;8.60;99.90;;;;;;5021817;28;19928;-86
2023/02/05 01:30:21;;;;;;;;;;;8.60;99.90;;;;;;5040643;22;20021;-84
2023/02/05 01:32:47;;;;;;;;;;;8.50;99.90;;;;;;5035406;28;20382;-83
2023/02/05 01:35:12;;;;;;;;;;;8.60;99.90;;;;;;5019436;28;19917;-82
2023/02/05 01:37:38;;;;;;;;;;;8.50;99.90;;;;;;5018064;28;19914;-84
2023/02/05 01:40:04;;;;;;;;;;;8.50;99.90;;;;;;5016247;28;19956;-83
2023/02/05 01:42:30;;;;;;;;;;;8.50;99.90;;;;;;5018383;28;19909;-83
2023/02/05 01:45:15;;;;;;;;;;;8.40;99.90;;;;;;5018438;28;19910;-84
2023/02/05 01:47:40;;;;;;;;;;;8.30;99.90;;;;;;5016776;28;20363;-83
2023/02/05 01:50:06;;;;;;;;;;;8.30;99.90;;;;;;5018402;28;19917;-82
2023/02/05 01:52:31;;;;;;;;;;;8.30;99.90;;;;;;5016505;28;20449;-83
2023/02/05 01:54:57;;;;;;;;;;;8.30;99.90;;;;;;5016447;28;19914;-82
2023/02/05 01:57:24;;;;;;;;;;;8.30;99.90;;;;;;5017320;28;20395;-84
2023/02/05 01:59:49;;;;;;;;;;;8.30;99.90;;;;;;5014976;28;19913;-84
2023/02/05 02:02:15;;;;;;;;;;;8.30;99.90;;;;;;5017537;28;19920;-81
2023/02/05 02:04:42;;;;;;;;;;;8.40;99.90;;;;;;5016889;28;19909;-83
2023/02/05 02:07:14;;;;;;;;;;;8.40;99.90;;;;;;5016591;28;19961;-82
2023/02/05 02:09:40;;;;;;;;;;;8.40;99.90;;;;;;5016286;28;20032;-83
2023/02/05 02:12:06;;;;;;;;;;;8.40;99.90;;;;;;5016129;28;19909;-83
2023/02/05 02:14:34;;;;;;;;;;;8.40;99.90;;;;;;5017473;28;19909;-84
2023/02/05 02:17:01;;;;;;;;;;;8.40;99.90;;;;;;5016248;28;19910;-84
2023/02/05 02:19:26;;;;;;;;;;;8.30;99.90;;;;;;5017456;28;19913;-83
2023/02/05 02:21:57;;;;;;;;;;;8.30;99.90;;;;;;5032321;28;20319;-82
2023/02/05 02:24:26;;;;;;;;;;;8.40;99.90;;;;;;5032821;28;19917;-84
2023/02/05 02:26:57;;;;;;;;;;;8.40;99.90;;;;;;5018197;28;19910;-83
2023/02/05 02:29:46;;;;;;;;;;;8.30;99.90;;;;;;5032647;28;19921;-83
2023/02/05 02:32:31;;;;;;;;;;;8.30;99.90;;;;;;5016116;28;19909;-85
2023/02/05 02:35:03;;;;;;;;;;;8.40;99.90;;;;;;5008609;28;19963;-83
2023/02/05 02:37:35;;;;;;;;;;;8.40;99.90;;;;;;5015634;28;19909;-83
2023/02/05 02:40:06;;;;;;;;;;;8.40;99.90;;;;;;5015403;28;20402;-84
2023/02/05 02:42:34;;;;;;;;;;;8.40;99.90;;;;;;5014923;28;19963;-84
2023/02/05 02:45:01;;;;;;;;;;;8.40;99.90;;;;;;5015067;28;19955;-84
2023/02/05 02:47:34;;;;;;;;;;;8.40;99.90;;;;;;5017334;28;19909;-82
2023/02/05 02:50:01;;;;;;;;;;;8.40;99.90;;;;;;5015582;28;19910;-84
2023/02/05 02:52:28;;;;;;;;;;;8.40;99.90;;;;;;5016408;28;20004;-84
2023/02/05 02:54:55;;;;;;;;;;;8.40;99.90;;;;;;5017928;28;19964;-84
2023/02/05 02:57:22;;;;;;;;;;;8.40;99.90;;;;;;5015881;28;20008;-85
2023/02/05 02:59:48;;;;;;;;;;;8.40;99.90;;;;;;5017144;28;19917;-84
2023/02/05 03:02:15;;;;;;;;;;;8.50;99.90;;;;;;5016186;28;19909;-83
2023/02/05 03:04:52;;;;;;;;;;;8.50;99.90;;;;;;5031528;28;20294;-82
2023/02/05 03:07:21;;;;;;;;;;;8.50;99.90;;;;;;5017390;28;19936;-82
2023/02/05 03:09:55;;;;;;;;;;;8.40;99.90;;;;;;5031920;28;19986;-83
2023/02/05 03:12:20;;;;;;;;;;;8.40;99.90;;;;;;5032524;28;19909;-83
2023/02/05 03:14:46;;;;;;;;;;;8.30;99.90;;;;;;5015756;28;19909;-83
2023/02/05 03:17:17;;;;;;;;;;;8.30;99.90;;;;;;5032441;28;19909;-81
2023/02/05 03:19:47;;;;;;;;;;;8.40;99.90;;;;;;5031541;28;19936;-83
2023/02/05 03:22:13;;;;;;;;;;;8.40;99.90;;;;;;5014975;28;20370;-83
2023/02/05 03:24:38;;;;;;;;;;;8.40;99.90;;;;;;5015625;28;19910;-82
2023/02/05 03:27:04;;;;;;;;;;;8.30;99.90;;;;;;5016338;28;19909;-83
2023/02/05 03:29:31;;;;;;;;;;;8.40;99.90;;;;;;5030496;28;19924;-82
2023/02/05 03:32:13;;;;;;;;;;;8.40;99.90;;;;;;5015725;28;19976;-82
2023/02/05 03:34:44;;;;;;;;;;;8.50;99.90;;;;;;5030728;28;19909;-84
2023/02/05 03:37:30;;;;;;;;;;;8.50;99.90;;;;;;5030592;28;20008;-82
2023/02/05 03:40:18;;;;;;;;;;;8.50;99.90;;;;;;5030613;28;19913;-83
2023/02/05 03:42:56;;;;;;;;;;;8.50;99.90;;;;;;5014199;28;19909;-83
2023/02/05 03:45:25;;;;;;;;;;;8.50;99.90;;;;;;5031169;28;19916;-83
2023/02/05 03:47:59;;;;;;;;;;;8.50;99.90;;;;;;5031115;28;20272;-82
2023/02/05 03:50:35;;;;;;;;;;;8.60;99.90;;;;;;5030187;28;19913;-82
2023/02/05 03:53:06;;;;;;;;;;;8.60;99.90;;;;;;5013867;28;19960;-82
2023/02/05 03:55:35;;;;;;;;;;;8.60;99.90;;;;;;5015549;28;19917;-83
2023/02/05 03:58:10;;;;;;;;;;;8.60;99.90;;;;;;5014832;28;19985;-81
2023/02/05 04:00:36;;;;;;;;;;;8.70;99.90;;;;;;5030548;28;19913;-83
2023/02/05 04:03:02;;;;;;;;;;;8.70;99.90;;;;;;5030724;28;19909;-83
2023/02/05 04:05:27;;;;;;;;;;;8.70;99.90;;;;;;5015258;28;19916;-83
2023/02/05 04:07:53;;;;;;;;;;;8.80;99.90;;;;;;5012923;28;19910;-83
2023/02/05 04:10:18;;;;;;;;;;;8.80;99.90;;;;;;5013334;28;19972;-82
2023/02/05 04:12:44;;;;;;;;;;;8.80;99.90;;;;;;5011766;28;19924;-83
2023/02/05 04:15:10;;;;;;;;;;;8.80;99.90;;;;;;5011973;28;19910;-82
2023/02/05 04:17:38;;;;;;;;;;;8.90;99.90;;;;;;5012138;28;19924;-82
2023/02/05 04:20:05;;;;;;;;;;;8.90;99.90;;;;;;5028274;28;19921;-83
2023/02/05 04:22:30;;;;;;;;;;;9.00;99.90;;;;;;5012263;28;19955;-82
2023/02/05 04:24:56;;;;;;;;;;;9.00;99.90;;;;;;5028036;28;19909;-83
2023/02/05 04:27:21;;;;;;;;;;;9.00;99.90;;;;;;5012933;28;19918;-82
2023/02/05 04:29:47;;;;;;;;;;;9.00;99.90;;;;;;5028014;28;19984;-82
2023/02/05 04:32:12;;;;;;;;;;;9.00;99.90;;;;;;5012669;28;19909;-83
2023/02/05 04:34:38;;;;;;;;;;;9.00;99.90;;;;;;5013333;28;20043;-83
2023/02/05 04:37:03;;;;;;;;;;;9.10;99.90;;;;;;5012827;28;19956;-82
2023/02/05 04:39:29;;;;;;;;;;;9.00;99.90;;;;;;5027857;28;19920;-82
2023/02/05 04:41:54;;;;;;;;;;;9.00;99.90;;;;;;5012685;28;19913;-82
2023/02/05 04:44:20;;;;;;;;;;;9.10;99.90;;;;;;5027906;28;19916;-82
2023/02/05 04:46:45;;;;;;;;;;;9.10;99.90;;;;;;5011718;28;20287;-83
2023/02/05 04:49:10;;;;;;;;;;;9.10;99.90;;;;;;5013337;28;20375;-82
2023/02/05 04:51:36;;;;;;;;;;;9.00;99.90;;;;;;5028340;28;19920;-82
2023/02/05 04:54:01;;;;;;;;;;;9.00;99.90;;;;;;5029395;28;19916;-83
2023/02/05 04:56:27;;;;;;;;;;;8.80;99.90;;;;;;5029430;28;19916;-83
2023/02/05 04:58:52;;;;;;;;;;;8.60;99.90;;;;;;5014361;28;19921;-83
2023/02/05 05:01:19;;;;;;;;;;;8.50;99.90;;;;;;5029310;28;19963;-83
2023/02/05 05:03:45;;;;;;;;;;;8.40;99.90;;;;;;5014609;28;20391;-83
2023/02/05 05:06:11;;;;;;;;;;;8.40;99.90;;;;;;5013295;28;19910;-83
2023/02/05 05:08:36;;;;;;;;;;;8.40;99.90;;;;;;5013762;28;20441;-82
2023/02/05 05:11:06;;;;;;;;;;;8.40;99.90;;;;;;5029128;28;19909;-84
2023/02/05 05:13:32;;;;;;;;;;;8.40;99.90;;;;;;5012388;28;19909;-83
2023/02/05 05:15:58;;;;;;;;;;;8.50;99.90;;;;;;5012852;28;20507;-83
2023/02/05 05:18:23;;;;;;;;;;;8.50;99.90;;;;;;5028653;28;20032;-83
2023/02/05 05:20:49;;;;;;;;;;;8.60;99.90;;;;;;5013862;28;20363;-83
2023/02/05 05:23:14;;;;;;;;;;;8.60;99.90;;;;;;5028711;28;19909;-85
2023/02/05 05:25:43;;;;;;;;;;;8.60;99.90;;;;;;5029018;28;19914;-83
2023/02/05 05:28:09;;;;;;;;;;;8.70;99.90;;;;;;5013397;28;20302;-82
2023/02/05 05:30:36;;;;;;;;;;;8.70;99.90;;;;;;5013567;28;19949;-82
2023/02/05 05:33:02;;;;;;;;;;;8.70;99.90;;;;;;5013112;28;20286;-83
2023/02/05 05:35:27;;;;;;;;;;;8.70;99.90;;;;;;5014127;28;19909;-82
2023/02/05 05:37:54;;;;;;;;;;;8.80;99.90;;;;;;5016854;28;19931;-83
2023/02/05 05:45:48;;;;;;;;;;;8.80;99.90;;;;;;5036914;28;19963;-83
2023/02/05 05:48:14;;;;;;;;;;;8.80;99.90;;;;;;5036978;28;19913;-83
2023/02/05 05:50:39;;;;;;;;;;;8.70;99.90;;;;;;5036783;28;20382;-83
2023/02/05 05:53:05;;;;;;;;;;;8.70;99.90;;;;;;5034570;28;19909;-83
2023/02/05 05:55:30;;;;;;;;;;;8.70;99.90;;;;;;5051759;28;19909;-83
2023/02/05 05:57:56;;;;;;;;;;;8.70;99.90;;;;;;5037107;28;20386;-83
2023/02/05 06:00:21;;;;;;;;;;;8.60;99.90;;;;;;5034997;28;20007;-83
2023/02/05 06:02:47;;;;;;;;;;;8.60;99.90;;;;;;5035021;28;19913;-83
2023/02/05 06:05:12;;;;;;;;;;;8.60;99.90;;;;;;5051788;28;19915;-82
2023/02/05 06:07:38;;;;;;;;;;;8.60;99.90;;;;;;5034908;28;19913;-82
2023/02/05 06:10:03;;;;;;;;;;;8.70;99.90;;;;;;5035048;28;20264;-83
2023/02/05 06:12:29;;;;;;;;;;;8.50;99.90;;;;;;5034768;28;19909;-84
2023/02/05 06:14:54;;;;;;;;;;;8.60;99.90;;;;;;5035062;28;19916;-83
2023/02/05 06:17:20;;;;;;;;;;;8.50;99.90;;;;;;5034801;28;19945;-84
2023/02/05 06:19:45;;;;;;;;;;;8.60;99.90;;;;;;5051113;28;19913;-83
2023/02/05 06:22:11;;;;;;;;;;;8.50;99.90;;;;;;5034246;28;19909;-83
2023/02/05 06:24:36;;;;;;;;;;;8.50;99.90;;;;;;5035586;28;19913;-82
2023/02/05 06:27:02;;;;;;;;;;;8.50;99.90;;;;;;5036219;28;20310;-83
2023/02/05 06:29:27;;;;;;;;;;;8.50;99.90;;;;;;5036053;28;19917;-82
2023/02/05 06:31:53;;;;;;;;;;;8.40;99.90;;;;;;5036043;28;19909;-82
2023/02/05 06:34:18;;;;;;;;;;;8.40;99.90;;;;;;5036016;28;20359;-83
2023/02/05 06:36:44;;;;;;;;;;;8.40;99.90;;;;;;5035650;28;19913;-83
2023/02/05 06:39:09;;;;;;;;;;;8.40;99.90;;;;;;5034430;28;19913;-83
2023/02/05 06:41:34;;;;;;;;;;;8.30;99.90;;;;;;5034549;28;20323;-81
2023/02/05 06:44:00;;;;;;;;;;;8.30;99.90;;;;;;5035459;28;19909;-83
2023/02/05 06:46:25;;;;;;;;;;;8.30;99.90;;;;;;5035384;28;19932;-83
2023/02/05 06:48:51;;;;;;;;;;;8.30;99.90;;;;;;5035002;28;19909;-82
2023/02/05 06:51:16;;;;;;;;;;;8.30;99.90;;;;;;5035283;28;19913;-83
2023/02/05 06:53:42;;;;;;;;;;;8.30;99.90;;;;;;5035620;28;19916;-84
2023/02/05 06:56:08;;;;;;;;;;;8.30;99.90;;;;;;5033742;28;19909;-83
2023/02/05 06:58:33;;;;;;;;;;;8.30;99.90;;;;;;5049885;28;19916;-82
2023/02/05 07:00:58;;;;;;;;;;;8.30;99.90;;;;;;5034405;28;19960;-83
2023/02/05 07:03:24;;;;;;;;;;;8.30;99.90;;;;;;5033078;28;19909;-83
2023/02/05 07:05:49;;;;;;;;;;;8.30;99.90;;;;;;5034775;28;19912;-83
2023/02/05 07:08:15;;;;;;;;;;;8.40;99.90;;;;;;5034609;28;19909;-83
2023/02/05 07:10:40;;;;;;;;;;;8.40;99.90;;;;;;5032689;28;20375;-82
2023/02/05 07:13:06;;;;;;;;;;;8.50;99.90;;;;;;5032582;28;19913;-83
2023/02/05 07:15:34;;;;;;;;;;;8.50;99.90;;;;;;5033091;28;19913;-81
2023/02/05 07:17:59;;;;;;;;;;;8.50;99.90;;;;;;5034077;28;19959;-83
2023/02/05 07:20:24;;;;;;;;;;;8.40;99.90;;;;;;5033572;28;19913;-82
2023/02/05 07:22:50;;;;;;;;;;;8.50;99.90;;;;;;5032563;28;19909;-82
2023/02/05 07:25:15;;;;;;;;;;;8.40;99.90;;;;;;5033993;28;20004;-83
2023/02/05 07:27:41;;;;;;;;;;;8.40;99.90;;;;;;5033743;28;19909;-82
2023/02/05 07:30:07;;;;;;;;;;;8.40;99.90;;;;;;5060612;22;19929;-83
2023/02/05 07:32:32;;;;;;;;;;;8.40;99.90;;;;;;5041143;28;19912;-83
2023/02/05 07:34:58;;;;;;;;;;;8.40;99.90;;;;;;5054321;28;19909;-83
2023/02/05 07:37:23;;;;;;;;;;;8.30;99.90;;;;;;5054311;28;20281;-83
2023/02/05 07:39:48;;;;;;;;;;;8.30;99.90;;;;;;5055760;28;19916;-83
2023/02/05 07:42:14;;;;;;;;;;;8.20;99.90;;;;;;5037549;28;20000;-83
2023/02/05 07:44:39;;;;;;;;;;;8.20;99.90;;;;;;5037530;28;19909;-83
2023/02/05 07:47:05;;;;;;;;;;;8.10;99.90;;;;;;5055519;28;19923;-83
2023/02/05 07:49:30;;;;;;;;;;;8.10;99.90;;;;;;5037004;28;20373;-83
2023/02/05 07:51:56;;;;;;;;;;;8.00;99.90;;;;;;5055540;28;19908;-83
2023/02/05 07:54:21;;;;;;;;;;;8.00;99.90;;;;;;5037324;28;19944;-83
2023/02/05 07:56:47;;;;;;;;;;;8.10;99.90;;;;;;5054680;28;20289;-83
2023/02/05 07:59:12;;;;;;;;;;;8.10;99.90;;;;;;5036743;28;20293;-83
2023/02/05 08:01:38;;;;;;;;;;;8.10;99.90;;;;;;5037056;28;19916;-84
2023/02/05 08:04:03;;;;;;;;;;;8.10;99.90;;;;;;5037167;28;20035;-84
2023/02/05 08:06:29;;;;;;;;;;;8.10;99.90;;;;;;5037946;28;19952;-84
2023/02/05 08:08:54;;;;;;;;;;;8.10;99.90;;;;;;5037184;28;19912;-84
2023/02/05 08:11:20;;;;;;;;;;;8.00;99.90;;;;;;5055732;28;19909;-84
2023/02/05 08:13:46;;;;;;;;;;;8.10;99.90;;;;;;5037662;28;19908;-84
2023/02/05 08:16:14;;;;;;;;;;;8.00;99.90;;;;;;5037220;28;20363;-83
2023/02/05 08:18:39;;;;;;;;;;;8.00;99.90;;;;;;5036696;28;19959;-83
2023/02/05 08:21:05;;;;;;;;;;;8.00;99.90;;;;;;5036568;28;20366;-83
2023/02/05 08:23:31;;;;;;;;;;;8.00;99.90;;;;;;5036685;28;19909;-83
2023/02/05 08:25:57;;;;;;;;;;;7.90;99.90;;;;;;5054976;28;20008;-84
2023/02/05 08:28:23;;;;;;;;;;;7.90;99.90;;;;;;5036331;28;19928;-83
2023/02/05 08:30:48;;;;;;;;;;;7.90;99.90;;;;;;5036024;28;20003;-83
2023/02/05 08:33:14;;;;;;;;;;;7.90;99.90;;;;;;5036106;28;20019;-84
2023/02/05 08:35:39;;;;;;;;;;;7.90;99.90;;;;;;5053933;28;20290;-83
2023/02/05 08:38:05;;;;;;;;;;;7.80;99.90;;;;;;5036364;28;19958;-83
2023/02/05 08:40:30;;;;;;;;;;;7.80;99.90;;;;;;5035945;28;19912;-83
2023/02/05 08:42:59;;;;;;;;;;;7.70;99.90;;;;;;5054284;28;20366;-84
2023/02/05 08:45:25;;;;;;;;;;;7.70;99.90;;;;;;5036141;28;19912;-83
2023/02/05 08:47:50;;;;;;;;;;;7.70;99.90;;;;;;5036060;28;20317;-83
2023/02/05 08:50:16;;;;;;;;;;;7.60;99.90;;;;;;5036184;28;19958;-83
2023/02/05 08:52:41;;;;;;;;;;;7.60;99.90;;;;;;5053533;28;20000;-83
2023/02/05 08:55:07;;;;;;;;;;;7.60;99.90;;;;;;5036102;28;19917;-83
2023/02/05 08:57:33;;;;;;;;;;;7.50;99.90;;;;;;5036685;28;19909;-84
2023/02/05 08:59:58;;;;;;;;;;;7.50;99.90;;;;;;5036893;28;19919;-84
2023/02/05 09:02:24;;;;;;;;;;;7.30;99.90;;;;;;5055242;28;20031;-84
2023/02/05 09:04:50;;;;;;;;;;;7.20;99.90;;;;;;5037330;28;19909;-83
2023/02/05 09:07:15;;;;;;;;;;;7.10;99.90;;;;;;5036438;28;20447;-83
2023/02/05 09:09:41;;;;;;;;;;;7.00;99.90;;;;;;5038716;28;20325;-83
2023/02/05 09:12:09;;;;;;;;;;;7.00;99.90;;;;;;5039462;28;19912;-83
2023/02/05 09:14:35;;;;;;;;;;;6.90;99.90;;;;;;5039695;28;20521;-83
2023/02/05 09:17:08;;;;;;;;;;;6.90;99.90;;;;;;5039822;28;19916;-82
2023/02/05 09:19:34;;;;;;;;;;;6.90;99.90;;;;;;5056752;28;19976;-83
2023/02/05 09:22:00;;;;;;;;;;;6.90;99.90;;;;;;5039626;28;19909;-84
2023/02/05 09:24:25;;;;;;;;;;;6.90;99.90;;;;;;5057604;28;19909;-83
2023/02/05 09:26:51;;;;;;;;;;;7.00;99.90;;;;;;5057142;28;19916;-83
2023/02/05 09:29:16;;;;;;;;;;;7.20;99.90;;;;;;5056887;28;19934;-84
2023/02/05 09:31:42;;;;;;;;;;;7.30;99.90;;;;;;5023941;28;19909;-84
2023/02/05 09:34:07;;;;;;;;;;;7.30;99.90;;;;;;5057720;28;19908;-84
2023/02/05 09:36:33;;;;;;;;;;;7.30;99.90;;;;;;5057605;28;19909;-83
2023/02/05 09:38:58;;;;;;;;;;;7.30;99.90;;;;;;5056741;28;19913;-83
2023/02/05 09:41:44;;;;;;;;;;;7.40;99.90;;;;;;5055553;28;19909;-83
2023/02/05 09:44:15;;;;;;;;;;;7.50;99.90;;;;;;5008949;28;19932;-83
2023/02/05 09:46:44;;;;;;;;;;;7.50;99.90;;;;;;5038649;28;19908;-83
2023/02/05 09:49:13;;;;;;;;;;;7.60;99.90;;;;;;5038757;28;19916;-83
2023/02/05 09:51:44;;;;;;;;;;;7.60;99.90;;;;;;5056932;28;19909;-83
2023/02/05 09:54:17;;;;;;;;;;;7.70;99.90;;;;;;5039407;28;19915;-83
2023/02/05 09:56:44;;;;;;;;;;;7.60;99.90;;;;;;5039344;28;19916;-83
2023/02/05 09:59:13;;;;;;;;;;;7.70;99.90;;;;;;5039734;28;19912;-83
2023/02/05 10:01:41;;;;;;;;;;;7.70;99.90;;;;;;5031024;28;19915;-83
2023/02/05 10:04:07;;;;;;;;;;;7.70;99.90;;;;;;5035672;28;19909;-83
2023/02/05 10:06:48;;;;;;;;;;;7.70;99.90;;;;;;5018867;28;19920;-83
2023/02/05 10:09:13;;;;;;;;;;;7.70;99.90;;;;;;5018572;28;20332;-83
2023/02/05 10:11:41;;;;;;;;;;;7.60;99.90;;;;;;5019690;28;20005;-85
2023/02/05 10:14:36;;;;;;;;;;;7.60;99.90;;;;;;5022960;28;19920;-83
2023/02/05 10:17:14;;;;;;;;;;;7.60;99.90;;;;;;5036494;28;20393;-84
2023/02/05 10:19:52;;;;;;;;;;;7.60;99.90;;;;;;5035004;28;19917;-84
2023/02/05 10:22:42;;;;;;;;;;;7.50;99.90;;;;;;5038319;28;19978;-84
2023/02/05 10:25:34;;;;;;;;;;;7.50;99.90;;;;;;5035378;28;20008;-84
2023/02/05 10:27:59;;;;;;;;;;;7.40;99.90;;;;;;5004646;28;20252;-84
2023/02/05 10:30:29;;;;;;;;;;;7.50;99.90;;;;;;5040568;28;19924;-84
2023/02/05 10:32:54;;;;;;;;;;;7.50;99.90;;;;;;5022719;28;19909;-83
2023/02/05 10:35:29;;;;;;;;;;;7.40;99.90;;;;;;5020822;28;20313;-84
2023/02/05 10:37:56;;;;;;;;;;;7.40;99.90;;;;;;5037000;28;19909;-84
2023/02/05 10:40:29;;;;;;;;;;;7.40;99.90;;;;;;5036643;28;20108;-83
2023/02/05 10:43:13;;;;;;;;;;;7.50;99.90;;;;;;5035932;28;19913;-83
2023/02/05 10:45:38;;;;;;;;;;;7.50;99.90;;;;;;5053270;28;19916;-83
2023/02/05 10:48:13;;;;;;;;;;;7.40;99.90;;;;;;5036361;28;20362;-83
2023/02/05 10:50:58;;;;;;;;;;;7.40;99.90;;;;;;5055226;28;19966;-83
2023/02/05 10:53:24;;;;;;;;;;;7.50;99.90;;;;;;5035630;28;19919;-82
2023/02/05 10:55:49;;;;;;;;;;;7.40;99.90;;;;;;5036616;28;19909;-82
2023/02/05 10:58:30;;;;;;;;;;;7.50;99.90;;;;;;5054287;28;19915;-84
2023/02/05 11:00:56;;;;;;;;;;;7.50;99.90;;;;;;5035918;28;19919;-83
2023/02/05 11:03:22;;;;;;;;;;;7.50;99.90;;;;;;5036160;28;20586;-82
2023/02/05 11:05:48;;;;;;;;;;;7.50;99.90;;;;;;5036788;28;19913;-82
2023/02/05 11:08:30;;;;;;;;;;;7.40;99.90;;;;;;5036385;28;19944;-83
2023/02/05 11:10:55;;;;;;;;;;;7.50;99.90;;;;;;5035134;28;19948;-82
2023/02/05 11:13:21;;;;;;;;;;;7.50;99.90;;;;;;5054444;28;19912;-83
2023/02/05 11:16:04;;;;;;;;;;;7.50;99.90;;;;;;5037032;28;19971;-83
2023/02/05 11:24:32;;;;;;;;;;;7.40;99.90;;;;;;5075676;28;19909;-84
2023/02/05 11:27:20;;;;;;;;;;;7.40;99.90;;;;;;5056913;28;19958;-84
2023/02/05 11:29:51;;;;;;;;;;;7.60;99.90;;;;;;5041968;28;19909;-83
2023/02/05 11:32:54;;;;;;;;;;;7.60;99.90;;;;;;5056522;28;19909;-84
2023/02/05 11:38:30;;;;;;;;;;;7.60;99.90;;;;;;5058608;28;19908;-85
2023/02/05 11:41:22;;;;;;;;;;;7.60;99.90;;;;;;5039489;28;19913;-85
2023/02/05 11:46:42;;;;;;;;;;;7.60;99.90;;;;;;5058023;28;19924;-85
2023/02/05 11:49:22;;;;;;;;;;;7.60;99.90;;;;;;5039082;28;19912;-86
2023/02/05 11:51:54;;;;;;;;;;;7.60;99.90;;;;;;5057646;28;19920;-85
2023/02/05 11:54:33;;;;;;;;;;;7.50;99.90;;;;;;5038885;28;19909;-86
2023/02/05 11:57:42;;;;;;;;;;;7.50;99.90;;;;;;5039394;28;19909;-85
2023/02/05 12:00:19;;;;;;;;;;;7.40;99.90;;;;;;5053819;28;19923;-85
2023/02/05 12:03:01;;;;;;;;;;;7.40;99.90;;;;;;5037035;28;19909;-85
2023/02/05 12:06:03;;;;;;;;;;;;;;;;;;;;;
2023/02/05 12:08:57;;;;;;;;;;;7.50;99.90;;;;;;5024573;28;19909;-85
2023/02/05 12:11:59;;;;;;;;;;;7.60;99.90;;;;;;5055086;28;19909;-84
2023/02/05 12:14:26;;;;;;;;;;;7.70;99.90;;;;;;5055601;28;20382;-84
2023/02/05 12:16:59;;;;;;;;;;;7.50;99.90;;;;;;5039481;28;19913;-85
2023/02/05 12:19:32;;;;;;;;;;;7.50;99.90;;;;;;5057516;28;20015;-85
2023/02/05 12:22:21;;;;;;;;;;;7.50;99.90;;;;;;5038286;28;19913;-85
2023/02/05 12:24:46;;;;;;;;;;;7.50;99.90;;;;;;5037960;28;19915;-85
2023/02/05 12:27:22;;;;;;;;;;;7.40;99.90;;;;;;5038615;28;19991;-85
2023/02/05 12:29:57;;;;;;;;;;;7.30;99.90;;;;;;5037959;28;19935;-85
2023/02/05 12:33:16;;;;;;;;;;;7.40;99.90;;;;;;5038191;28;19909;-84
2023/02/05 12:35:51;;;;;;;;;;;7.30;99.90;;;;;;4974344;28;19942;-85
2023/02/05 12:38:42;;;;;;;;;;;7.30;99.90;;;;;;5036178;28;20351;-85
2023/02/05 12:41:08;;;;;;;;;;;7.20;99.90;;;;;;5037187;28;20003;-85
2023/02/05 12:43:58;;;;;;;;;;;7.20;99.90;;;;;;5038619;28;20325;-85
2023/02/05 12:46:40;;;;;;;;;;;7.20;99.90;;;;;;5057920;28;20007;-85
2023/02/05 12:49:11;;;;;;;;;;;7.20;99.90;;;;;;5041475;28;19909;-85
2023/02/05 12:51:49;;;;;;;;;;;7.20;99.90;;;;;;5059795;28;20009;-86
2023/02/05 12:54:33;;;;;;;;;;;7.20;99.90;;;;;;5040999;28;19966;-86
2023/02/05 12:56:58;;;;;;;;;;;7.10;99.90;;;;;;5040649;28;19909;-85
2023/02/05 12:59:33;;;;;;;;;;;7.10;99.90;;;;;;5040729;28;19950;-85
2023/02/05 13:02:02;;;;;;;;;;;7.10;99.90;;;;;;5058719;28;20004;-86
2023/02/05 13:04:28;;;;;;;;;;;7.10;99.90;;;;;;5040088;28;19940;-85
2023/02/05 13:06:58;;;;;;;;;;;7.20;99.90;;;;;;5058716;28;19917;-85
2023/02/05 13:09:47;;;;;;;;;;;7.20;99.90;;;;;;5040272;28;19909;-85
2023/02/05 13:12:14;;;;;;;;;;;7.30;99.90;;;;;;5032066;28;20370;-85
2023/02/05 13:14:42;;;;;;;;;;;7.40;99.90;;;;;;5058756;28;20266;-85
2023/02/05 13:17:12;;;;;;;;;;;7.40;99.90;;;;;;5040613;28;19912;-86
2023/02/05 13:19:44;;;;;;;;;;;7.30;99.90;;;;;;5058207;28;20291;-84
2023/02/05 13:30:35;;;;;;;;;;;7.40;99.90;;;;;;5058807;28;20012;-84
2023/02/05 13:33:02;;;;;;;;;;;7.40;99.90;;;;;;5039043;28;19916;-85
2023/02/05 13:35:34;;;;;;;;;;;7.50;99.90;;;;;;5039233;28;19964;-85
2023/02/05 13:38:16;;;;;;;;;;;7.60;99.90;;;;;;5039059;28;19916;-85
2023/02/05 13:40:49;;;;;;;;;;;7.40;99.90;;;;;;5039496;28;19936;-85
2023/02/05 13:43:28;;;;;;;;;;;7.50;99.90;;;;;;5055732;28;19954;-85
2023/02/05 13:46:17;;;;;;;;;;;7.50;99.90;;;;;;5039162;28;19908;-85
2023/02/05 13:49:08;;;;;;;;;;;7.50;99.90;;;;;;5057336;28;19909;-85
2023/02/05 13:51:43;;;;;;;;;;;7.50;99.90;;;;;;5015949;28;19970;-85
2023/02/05 13:54:15;;;;;;;;;;;7.40;99.90;;;;;;5014118;28;19909;-85
2023/02/05 13:56:59;;;;;;;;;;;7.50;99.90;;;;;;5022497;28;19909;-85
2023/02/05 13:59:50;;;;;;;;;;;7.60;99.90;;;;;;5036950;28;19913;-85
2023/02/05 14:02:30;;;;;;;;;;;7.50;99.90;;;;;;5038679;28;20370;-86
2023/02/05 14:05:06;;;;;;;;;;;7.50;99.90;;;;;;5038226;28;20314;-85
2023/02/05 14:07:46;;;;;;;;;;;7.50;99.90;;;;;;5037459;28;19909;-85
2023/02/05 14:10:38;;;;;;;;;;;;;;;;;;;;;
2023/02/05 14:13:29;;;;;;;;;;;7.50;99.90;;;;;;5055844;28;20359;-85
2023/02/05 14:16:14;;;;;;;;;;;7.50;99.90;;;;;;5029134;28;19916;-85
2023/02/05 14:18:39;;;;;;;;;;;7.70;99.90;;;;;;5037674;28;19955;-85
2023/02/05 14:21:46;;;;;;;;;;;7.70;99.90;;;;;;5037587;28;19944;-85
2023/02/05 14:24:36;;;;;;;;;;;7.70;99.90;;;;;;4974174;28;20001;-86
2023/02/05 14:27:30;;;;;;;;;;;;;;;;;;;;;
2023/02/05 14:33:34;;;;;;;;;;;7.70;99.90;;;;;;5049565;28;19912;-86
2023/02/05 14:36:20;;;;;;;;;;;7.80;99.90;;;;;;5032035;28;19917;-87
2023/02/05 14:39:03;;;;;;;;;;;7.80;99.90;;;;;;5031822;28;19909;-85
2023/02/05 14:41:38;;;;;;;;;;;7.90;99.90;;;;;;5030240;28;19944;-87
2023/02/05 14:44:15;;;;;;;;;;;8.00;99.90;;;;;;5030055;28;20388;-85
2023/02/05 14:46:59;;;;;;;;;;;8.00;99.90;;;;;;5038427;28;19909;-85
2023/02/05 14:49:45;;;;;;;;;;;7.90;99.90;;;;;;5037225;28;19909;-86
2023/02/05 14:52:28;;;;;;;;;;;8.00;99.90;;;;;;5038589;28;19913;-86
2023/02/05 15:00:46;;;;;;;;;;;8.00;99.90;;;;;;4985689;28;19953;-84
2023/02/05 15:03:15;;;;;;;;;;;8.10;99.90;;;;;;5031351;28;20337;-84
2023/02/05 15:05:40;;;;;;;;;;;8.10;99.90;;;;;;5036955;28;20278;-86
2023/02/05 15:08:12;;;;;;;;;;;8.00;99.90;;;;;;5035829;28;19963;-86
2023/02/05 15:10:47;;;;;;;;;;;8.00;99.90;;;;;;5035678;28;20293;-86
2023/02/05 15:13:16;;;;;;;;;;;7.90;99.90;;;;;;5018942;28;21994;-86
2023/02/05 15:16:04;;;;;;;;;;;8.00;99.90;;;;;;5035613;28;19955;-86
2023/02/05 15:18:34;;;;;;;;;;;8.00;99.90;;;;;;5035658;28;20281;-86
2023/02/05 15:21:03;;;;;;;;;;;8.10;99.90;;;;;;5035690;28;20296;-86
2023/02/05 15:23:39;;;;;;;;;;;8.10;99.90;;;;;;5053400;28;19966;-86
2023/02/05 15:26:06;;;;;;;;;;;8.10;99.90;;;;;;5038248;28;19913;-88